sensor_id;sensor_type;location;lat;lon;timestamp;P1;durP1;ratioP1;P2;durP2;ratioP2
66669;SDS011;53568;52.164;4.472;2024-01-11T00:01:18;20.56;;;19.71;;
66669;SDS011;53568;52.164;4.472;2024-01-11T00:03:43;19.78;;;19.26;;
66669;SDS011;53568;52.164;4.472;2024-01-11T00:06:09;19.55;;;19.13;;
66669;SDS011;53568;52.164;4.472;2024-01-11T00:08:34;20.13;;;19.72;;
66669;SDS011;53568;52.164;4.472;2024-01-11T00:11:00;19.94;;;19.40;;
66669;SDS011;53568;52.164;4.472;2024-01-11T00:13:25;19.75;;;19.36;;
66669;SDS011;53568;52.164;4.472;2024-01-11T00:15:51;20.63;;;20.09;;
66669;SDS011;53568;52.164;4.472;2024-01-11T00:18:18;20.10;;;19.58;;
66669;SDS011;53568;52.164;4.472;2024-01-11T00:20:44;21.18;;;20.45;;
66669;SDS011;53568;52.164;4.472;2024-01-11T00:23:09;20.47;;;20.07;;
66669;SDS011;53568;52.164;4.472;2024-01-11T00:25:35;20.58;;;20.02;;
66669;SDS011;53568;52.164;4.472;2024-01-11T00:28:01;21.20;;;20.50;;
66669;SDS011;53568;52.164;4.472;2024-01-11T00:30:27;21.94;;;21.31;;
66669;SDS011;53568;52.164;4.472;2024-01-11T00:32:52;21.53;;;20.50;;
66669;SDS011;53568;52.164;4.472;2024-01-11T00:35:18;21.72;;;21.08;;
66669;SDS011;53568;52.164;4.472;2024-01-11T00:37:44;22.08;;;21.24;;
66669;SDS011;53568;52.164;4.472;2024-01-11T00:40:10;21.91;;;21.05;;
66669;SDS011;53568;52.164;4.472;2024-01-11T00:42:36;21.40;;;20.91;;
66669;SDS011;53568;52.164;4.472;2024-01-11T00:45:01;21.00;;;20.51;;
66669;SDS011;53568;52.164;4.472;2024-01-11T00:47:27;22.28;;;21.57;;
66669;SDS011;53568;52.164;4.472;2024-01-11T00:49:52;21.93;;;21.17;;
66669;SDS011;53568;52.164;4.472;2024-01-11T00:52:18;21.44;;;20.85;;
66669;SDS011;53568;52.164;4.472;2024-01-11T00:54:44;23.05;;;22.21;;
66669;SDS011;53568;52.164;4.472;2024-01-11T00:57:09;21.16;;;20.72;;
66669;SDS011;53568;52.164;4.472;2024-01-11T00:59:35;22.06;;;21.32;;
66669;SDS011;53568;52.164;4.472;2024-01-11T01:02:01;22.70;;;21.81;;
66669;SDS011;53568;52.164;4.472;2024-01-11T01:04:26;21.90;;;21.38;;
66669;SDS011;53568;52.164;4.472;2024-01-11T01:06:52;22.27;;;21.61;;
66669;SDS011;53568;52.164;4.472;2024-01-11T01:09:17;22.59;;;21.75;;
66669;SDS011;53568;52.164;4.472;2024-01-11T01:11:43;22.56;;;21.86;;
66669;SDS011;53568;52.164;4.472;2024-01-11T01:14:08;22.30;;;21.60;;
66669;SDS011;53568;52.164;4.472;2024-01-11T01:16:34;22.71;;;22.00;;
66669;SDS011;53568;52.164;4.472;2024-01-11T01:18:59;23.16;;;22.28;;
66669;SDS011;53568;52.164;4.472;2024-01-11T01:21:25;22.65;;;22.09;;
66669;SDS011;53568;52.164;4.472;2024-01-11T01:23:50;22.96;;;22.50;;
66669;SDS011;53568;52.164;4.472;2024-01-11T01:26:16;22.70;;;22.23;;
66669;SDS011;53568;52.164;4.472;2024-01-11T01:28:41;22.99;;;22.32;;
66669;SDS011;53568;52.164;4.472;2024-01-11T01:31:07;23.10;;;22.35;;
66669;SDS011;53568;52.164;4.472;2024-01-11T01:33:33;23.42;;;22.73;;
66669;SDS011;53568;52.164;4.472;2024-01-11T01:35:58;23.93;;;23.18;;
66669;SDS011;53568;52.164;4.472;2024-01-11T01:38:24;23.16;;;22.54;;
66669;SDS011;53568;52.164;4.472;2024-01-11T01:40:49;24.31;;;23.53;;
66669;SDS011;53568;52.164;4.472;2024-01-11T01:43:15;23.82;;;22.96;;
66669;SDS011;53568;52.164;4.472;2024-01-11T01:45:40;23.41;;;22.61;;
66669;SDS011;53568;52.164;4.472;2024-01-11T01:48:06;23.56;;;22.99;;
66669;SDS011;53568;52.164;4.472;2024-01-11T01:50:32;23.75;;;23.05;;
66669;SDS011;53568;52.164;4.472;2024-01-11T01:52:58;23.64;;;22.96;;
66669;SDS011;53568;52.164;4.472;2024-01-11T01:55:25;24.41;;;23.60;;
66669;SDS011;53568;52.164;4.472;2024-01-11T01:57:52;24.22;;;23.56;;
66669;SDS011;53568;52.164;4.472;2024-01-11T02:00:19;25.21;;;24.00;;
66669;SDS011;53568;52.164;4.472;2024-01-11T02:02:45;24.81;;;24.06;;
66669;SDS011;53568;52.164;4.472;2024-01-11T02:05:15;25.03;;;24.45;;
66669;SDS011;53568;52.164;4.472;2024-01-11T02:07:42;25.58;;;24.73;;
66669;SDS011;53568;52.164;4.472;2024-01-11T02:10:09;25.63;;;24.83;;
66669;SDS011;53568;52.164;4.472;2024-01-11T02:12:36;26.35;;;25.34;;
66669;SDS011;53568;52.164;4.472;2024-01-11T02:15:04;25.91;;;25.02;;
66669;SDS011;53568;52.164;4.472;2024-01-11T02:17:31;25.76;;;24.67;;
66669;SDS011;53568;52.164;4.472;2024-01-11T02:19:57;26.63;;;25.32;;
66669;SDS011;53568;52.164;4.472;2024-01-11T02:22:24;26.68;;;25.65;;
66669;SDS011;53568;52.164;4.472;2024-01-11T02:24:56;26.06;;;25.20;;
66669;SDS011;53568;52.164;4.472;2024-01-11T02:27:23;26.33;;;25.51;;
66669;SDS011;53568;52.164;4.472;2024-01-11T02:29:49;27.41;;;26.39;;
66669;SDS011;53568;52.164;4.472;2024-01-11T02:32:14;26.99;;;26.02;;
66669;SDS011;53568;52.164;4.472;2024-01-11T02:34:40;27.83;;;26.91;;
66669;SDS011;53568;52.164;4.472;2024-01-11T02:37:06;27.88;;;27.05;;
66669;SDS011;53568;52.164;4.472;2024-01-11T02:39:32;28.49;;;27.33;;
66669;SDS011;53568;52.164;4.472;2024-01-11T02:41:59;28.21;;;27.32;;
66669;SDS011;53568;52.164;4.472;2024-01-11T02:44:25;29.23;;;28.20;;
66669;SDS011;53568;52.164;4.472;2024-01-11T02:46:51;29.44;;;28.50;;
66669;SDS011;53568;52.164;4.472;2024-01-11T02:49:17;29.08;;;28.31;;
66669;SDS011;53568;52.164;4.472;2024-01-11T02:51:42;30.27;;;29.24;;
66669;SDS011;53568;52.164;4.472;2024-01-11T02:54:08;30.68;;;29.72;;
66669;SDS011;53568;52.164;4.472;2024-01-11T02:56:34;30.60;;;29.71;;
66669;SDS011;53568;52.164;4.472;2024-01-11T02:58:59;31.17;;;30.03;;
66669;SDS011;53568;52.164;4.472;2024-01-11T03:01:25;30.71;;;29.67;;
66669;SDS011;53568;52.164;4.472;2024-01-11T03:03:51;31.47;;;30.26;;
66669;SDS011;53568;52.164;4.472;2024-01-11T03:06:16;32.18;;;31.02;;
66669;SDS011;53568;52.164;4.472;2024-01-11T03:08:46;31.73;;;30.56;;
66669;SDS011;53568;52.164;4.472;2024-01-11T03:11:15;32.06;;;31.05;;
66669;SDS011;53568;52.164;4.472;2024-01-11T03:13:41;32.35;;;31.43;;
66669;SDS011;53568;52.164;4.472;2024-01-11T03:16:07;33.04;;;31.94;;
66669;SDS011;53568;52.164;4.472;2024-01-11T03:18:32;34.02;;;32.85;;
66669;SDS011;53568;52.164;4.472;2024-01-11T03:20:58;35.28;;;33.42;;
66669;SDS011;53568;52.164;4.472;2024-01-11T03:23:23;35.48;;;34.15;;
66669;SDS011;53568;52.164;4.472;2024-01-11T03:25:49;34.00;;;32.89;;
66669;SDS011;53568;52.164;4.472;2024-01-11T03:28:15;33.32;;;32.39;;
66669;SDS011;53568;52.164;4.472;2024-01-11T03:30:40;33.53;;;32.56;;
66669;SDS011;53568;52.164;4.472;2024-01-11T03:33:06;35.65;;;34.13;;
66669;SDS011;53568;52.164;4.472;2024-01-11T03:35:31;35.60;;;34.18;;
66669;SDS011;53568;52.164;4.472;2024-01-11T03:37:57;35.83;;;34.53;;
66669;SDS011;53568;52.164;4.472;2024-01-11T03:40:22;36.15;;;34.92;;
66669;SDS011;53568;52.164;4.472;2024-01-11T03:42:48;35.97;;;34.61;;
66669;SDS011;53568;52.164;4.472;2024-01-11T03:45:13;38.47;;;36.62;;
66669;SDS011;53568;52.164;4.472;2024-01-11T03:47:43;38.51;;;36.27;;
66669;SDS011;53568;52.164;4.472;2024-01-11T03:50:08;37.43;;;36.36;;
66669;SDS011;53568;52.164;4.472;2024-01-11T03:52:34;37.94;;;36.78;;
66669;SDS011;53568;52.164;4.472;2024-01-11T03:54:59;39.13;;;37.47;;
66669;SDS011;53568;52.164;4.472;2024-01-11T03:57:25;40.21;;;38.50;;
66669;SDS011;53568;52.164;4.472;2024-01-11T03:59:50;39.87;;;38.15;;
66669;SDS011;53568;52.164;4.472;2024-01-11T04:02:16;39.64;;;37.82;;
66669;SDS011;53568;52.164;4.472;2024-01-11T04:04:41;40.24;;;38.54;;
66669;SDS011;53568;52.164;4.472;2024-01-11T04:07:07;39.80;;;38.47;;
66669;SDS011;53568;52.164;4.472;2024-01-11T04:09:33;40.57;;;38.93;;
66669;SDS011;53568;52.164;4.472;2024-01-11T04:11:58;42.38;;;40.39;;
66669;SDS011;53568;52.164;4.472;2024-01-11T04:14:24;41.12;;;39.45;;
66669;SDS011;53568;52.164;4.472;2024-01-11T04:16:49;41.96;;;40.29;;
66669;SDS011;53568;52.164;4.472;2024-01-11T04:19:15;40.22;;;39.05;;
66669;SDS011;53568;52.164;4.472;2024-01-11T04:21:40;41.33;;;39.71;;
66669;SDS011;53568;52.164;4.472;2024-01-11T04:24:06;43.75;;;41.55;;
66669;SDS011;53568;52.164;4.472;2024-01-11T04:26:32;44.79;;;42.42;;
66669;SDS011;53568;52.164;4.472;2024-01-11T04:28:58;46.77;;;44.71;;
66669;SDS011;53568;52.164;4.472;2024-01-11T04:31:25;48.32;;;45.74;;
66669;SDS011;53568;52.164;4.472;2024-01-11T04:33:51;48.72;;;45.95;;
66669;SDS011;53568;52.164;4.472;2024-01-11T04:36:16;48.48;;;46.20;;
66669;SDS011;53568;52.164;4.472;2024-01-11T04:38:42;48.66;;;45.83;;
66669;SDS011;53568;52.164;4.472;2024-01-11T04:41:08;49.63;;;46.72;;
66669;SDS011;53568;52.164;4.472;2024-01-11T04:43:40;48.86;;;45.96;;
66669;SDS011;53568;52.164;4.472;2024-01-11T04:46:16;49.33;;;46.39;;
66669;SDS011;53568;52.164;4.472;2024-01-11T04:48:42;48.93;;;46.64;;
66669;SDS011;53568;52.164;4.472;2024-01-11T04:51:08;48.44;;;45.99;;
66669;SDS011;53568;52.164;4.472;2024-01-11T04:53:38;47.45;;;44.98;;
66669;SDS011;53568;52.164;4.472;2024-01-11T04:56:06;48.90;;;46.16;;
66669;SDS011;53568;52.164;4.472;2024-01-11T04:58:33;47.59;;;45.08;;
66669;SDS011;53568;52.164;4.472;2024-01-11T05:00:59;48.87;;;46.22;;
66669;SDS011;53568;52.164;4.472;2024-01-11T05:03:25;50.70;;;47.36;;
66669;SDS011;53568;52.164;4.472;2024-01-11T05:05:50;51.25;;;47.97;;
66669;SDS011;53568;52.164;4.472;2024-01-11T05:08:16;49.73;;;47.07;;
66669;SDS011;53568;52.164;4.472;2024-01-11T05:10:42;50.79;;;47.57;;
66669;SDS011;53568;52.164;4.472;2024-01-11T05:13:08;51.44;;;48.20;;
66669;SDS011;53568;52.164;4.472;2024-01-11T05:15:34;50.77;;;47.80;;
66669;SDS011;53568;52.164;4.472;2024-01-11T05:17:59;50.49;;;47.86;;
66669;SDS011;53568;52.164;4.472;2024-01-11T05:20:25;50.59;;;47.77;;
66669;SDS011;53568;52.164;4.472;2024-01-11T05:22:50;52.25;;;48.79;;
66669;SDS011;53568;52.164;4.472;2024-01-11T05:25:16;52.21;;;49.36;;
66669;SDS011;53568;52.164;4.472;2024-01-11T05:27:42;50.93;;;47.86;;
66669;SDS011;53568;52.164;4.472;2024-01-11T05:30:07;50.29;;;47.29;;
66669;SDS011;53568;52.164;4.472;2024-01-11T05:32:33;51.12;;;48.03;;
66669;SDS011;53568;52.164;4.472;2024-01-11T05:34:59;50.26;;;47.44;;
66669;SDS011;53568;52.164;4.472;2024-01-11T05:37:24;50.77;;;47.97;;
66669;SDS011;53568;52.164;4.472;2024-01-11T05:39:50;49.43;;;47.14;;
66669;SDS011;53568;52.164;4.472;2024-01-11T05:42:15;52.92;;;49.90;;
66669;SDS011;53568;52.164;4.472;2024-01-11T05:44:41;50.63;;;47.72;;
66669;SDS011;53568;52.164;4.472;2024-01-11T05:47:06;51.38;;;48.16;;
66669;SDS011;53568;52.164;4.472;2024-01-11T05:49:32;51.97;;;48.90;;
66669;SDS011;53568;52.164;4.472;2024-01-11T05:51:57;50.94;;;48.08;;
66669;SDS011;53568;52.164;4.472;2024-01-11T05:54:23;51.21;;;48.19;;
66669;SDS011;53568;52.164;4.472;2024-01-11T05:56:48;51.97;;;48.98;;
66669;SDS011;53568;52.164;4.472;2024-01-11T05:59:15;50.40;;;48.01;;
66669;SDS011;53568;52.164;4.472;2024-01-11T06:01:41;49.69;;;46.95;;
66669;SDS011;53568;52.164;4.472;2024-01-11T06:04:07;49.22;;;46.54;;
66669;SDS011;53568;52.164;4.472;2024-01-11T06:06:33;49.96;;;47.50;;
66669;SDS011;53568;52.164;4.472;2024-01-11T06:08:59;51.54;;;48.75;;
66669;SDS011;53568;52.164;4.472;2024-01-11T06:11:24;50.84;;;48.28;;
66669;SDS011;53568;52.164;4.472;2024-01-11T06:13:50;54.17;;;50.78;;
66669;SDS011;53568;52.164;4.472;2024-01-11T06:16:15;51.10;;;48.33;;
66669;SDS011;53568;52.164;4.472;2024-01-11T06:18:41;50.89;;;47.99;;
66669;SDS011;53568;52.164;4.472;2024-01-11T06:21:06;52.67;;;49.07;;
66669;SDS011;53568;52.164;4.472;2024-01-11T06:23:32;51.83;;;48.93;;
66669;SDS011;53568;52.164;4.472;2024-01-11T06:25:57;51.38;;;48.63;;
66669;SDS011;53568;52.164;4.472;2024-01-11T06:28:23;52.65;;;49.71;;
66669;SDS011;53568;52.164;4.472;2024-01-11T06:30:48;51.78;;;49.22;;
66669;SDS011;53568;52.164;4.472;2024-01-11T06:33:14;54.59;;;51.22;;
66669;SDS011;53568;52.164;4.472;2024-01-11T06:35:39;54.99;;;51.29;;
66669;SDS011;53568;52.164;4.472;2024-01-11T06:38:05;54.58;;;51.36;;
66669;SDS011;53568;52.164;4.472;2024-01-11T06:40:30;54.99;;;52.25;;
66669;SDS011;53568;52.164;4.472;2024-01-11T06:42:57;56.95;;;53.49;;
66669;SDS011;53568;52.164;4.472;2024-01-11T06:45:22;54.91;;;52.13;;
66669;SDS011;53568;52.164;4.472;2024-01-11T06:47:48;57.63;;;54.31;;
66669;SDS011;53568;52.164;4.472;2024-01-11T06:50:14;56.92;;;53.55;;
66669;SDS011;53568;52.164;4.472;2024-01-11T06:52:40;58.85;;;54.80;;
66669;SDS011;53568;52.164;4.472;2024-01-11T06:55:05;57.73;;;54.25;;
66669;SDS011;53568;52.164;4.472;2024-01-11T06:57:31;58.28;;;54.74;;
66669;SDS011;53568;52.164;4.472;2024-01-11T06:59:57;59.03;;;55.70;;
66669;SDS011;53568;52.164;4.472;2024-01-11T07:02:22;59.69;;;56.26;;
66669;SDS011;53568;52.164;4.472;2024-01-11T07:04:48;58.30;;;54.82;;
66669;SDS011;53568;52.164;4.472;2024-01-11T07:07:13;58.73;;;54.87;;
66669;SDS011;53568;52.164;4.472;2024-01-11T07:09:39;59.49;;;55.46;;
66669;SDS011;53568;52.164;4.472;2024-01-11T07:12:05;60.09;;;56.14;;
66669;SDS011;53568;52.164;4.472;2024-01-11T07:14:31;58.92;;;55.58;;
66669;SDS011;53568;52.164;4.472;2024-01-11T07:16:57;60.88;;;57.39;;
66669;SDS011;53568;52.164;4.472;2024-01-11T07:19:22;59.00;;;55.92;;
66669;SDS011;53568;52.164;4.472;2024-01-11T07:21:48;58.79;;;55.41;;
66669;SDS011;53568;52.164;4.472;2024-01-11T07:24:14;58.46;;;55.06;;
66669;SDS011;53568;52.164;4.472;2024-01-11T07:26:40;60.78;;;56.94;;
66669;SDS011;53568;52.164;4.472;2024-01-11T07:29:06;58.98;;;55.31;;
66669;SDS011;53568;52.164;4.472;2024-01-11T07:31:32;59.01;;;55.47;;
66669;SDS011;53568;52.164;4.472;2024-01-11T07:33:57;59.32;;;55.60;;
66669;SDS011;53568;52.164;4.472;2024-01-11T07:36:24;59.59;;;56.78;;
66669;SDS011;53568;52.164;4.472;2024-01-11T07:38:50;60.54;;;56.85;;
66669;SDS011;53568;52.164;4.472;2024-01-11T07:41:15;61.18;;;58.01;;
66669;SDS011;53568;52.164;4.472;2024-01-11T07:43:41;59.54;;;56.58;;
66669;SDS011;53568;52.164;4.472;2024-01-11T07:46:07;58.62;;;56.00;;
66669;SDS011;53568;52.164;4.472;2024-01-11T07:48:32;60.39;;;57.18;;
66669;SDS011;53568;52.164;4.472;2024-01-11T07:50:59;60.38;;;57.14;;
66669;SDS011;53568;52.164;4.472;2024-01-11T07:53:25;57.55;;;54.86;;
66669;SDS011;53568;52.164;4.472;2024-01-11T07:55:51;58.23;;;55.48;;
66669;SDS011;53568;52.164;4.472;2024-01-11T07:58:17;57.64;;;54.96;;
66669;SDS011;53568;52.164;4.472;2024-01-11T08:00:43;60.61;;;56.86;;
66669;SDS011;53568;52.164;4.472;2024-01-11T08:03:10;61.49;;;57.96;;
66669;SDS011;53568;52.164;4.472;2024-01-11T08:05:35;58.85;;;55.99;;
66669;SDS011;53568;52.164;4.472;2024-01-11T08:08:01;58.59;;;55.78;;
66669;SDS011;53568;52.164;4.472;2024-01-11T08:10:28;59.59;;;56.28;;
66669;SDS011;53568;52.164;4.472;2024-01-11T08:12:56;60.20;;;57.10;;
66669;SDS011;53568;52.164;4.472;2024-01-11T08:15:21;59.06;;;55.89;;
66669;SDS011;53568;52.164;4.472;2024-01-11T08:17:47;60.11;;;56.68;;
66669;SDS011;53568;52.164;4.472;2024-01-11T08:20:13;61.94;;;58.31;;
66669;SDS011;53568;52.164;4.472;2024-01-11T08:22:40;59.44;;;56.82;;
66669;SDS011;53568;52.164;4.472;2024-01-11T08:25:09;59.04;;;56.30;;
66669;SDS011;53568;52.164;4.472;2024-01-11T08:27:35;59.63;;;56.57;;
66669;SDS011;53568;52.164;4.472;2024-01-11T08:30:01;60.09;;;57.06;;
66669;SDS011;53568;52.164;4.472;2024-01-11T08:32:27;58.51;;;55.86;;
66669;SDS011;53568;52.164;4.472;2024-01-11T08:34:53;59.83;;;56.40;;
66669;SDS011;53568;52.164;4.472;2024-01-11T08:37:19;59.62;;;56.40;;
66669;SDS011;53568;52.164;4.472;2024-01-11T08:39:44;59.43;;;55.64;;
66669;SDS011;53568;52.164;4.472;2024-01-11T08:42:11;61.42;;;57.21;;
66669;SDS011;53568;52.164;4.472;2024-01-11T08:44:41;61.84;;;57.70;;
66669;SDS011;53568;52.164;4.472;2024-01-11T08:47:07;60.26;;;56.89;;
66669;SDS011;53568;52.164;4.472;2024-01-11T08:49:40;59.73;;;56.52;;
66669;SDS011;53568;52.164;4.472;2024-01-11T08:52:07;61.35;;;58.28;;
66669;SDS011;53568;52.164;4.472;2024-01-11T08:54:33;62.04;;;58.64;;
66669;SDS011;53568;52.164;4.472;2024-01-11T08:56:59;60.30;;;57.17;;
66669;SDS011;53568;52.164;4.472;2024-01-11T08:59:26;60.83;;;57.13;;
66669;SDS011;53568;52.164;4.472;2024-01-11T09:01:52;62.08;;;58.64;;
66669;SDS011;53568;52.164;4.472;2024-01-11T09:04:18;62.43;;;58.71;;
66669;SDS011;53568;52.164;4.472;2024-01-11T09:06:44;62.78;;;59.30;;
66669;SDS011;53568;52.164;4.472;2024-01-11T09:09:10;62.66;;;58.79;;
66669;SDS011;53568;52.164;4.472;2024-01-11T09:11:37;60.71;;;57.36;;
66669;SDS011;53568;52.164;4.472;2024-01-11T09:14:02;61.37;;;58.13;;
66669;SDS011;53568;52.164;4.472;2024-01-11T09:16:28;63.20;;;59.36;;
66669;SDS011;53568;52.164;4.472;2024-01-11T09:18:54;63.49;;;59.45;;
66669;SDS011;53568;52.164;4.472;2024-01-11T09:21:19;62.35;;;58.55;;
66669;SDS011;53568;52.164;4.472;2024-01-11T09:23:45;61.37;;;58.32;;
66669;SDS011;53568;52.164;4.472;2024-01-11T09:26:10;63.02;;;59.86;;
66669;SDS011;53568;52.164;4.472;2024-01-11T09:28:36;62.80;;;59.07;;
66669;SDS011;53568;52.164;4.472;2024-01-11T09:31:01;63.25;;;59.44;;
66669;SDS011;53568;52.164;4.472;2024-01-11T09:33:27;62.73;;;59.52;;
66669;SDS011;53568;52.164;4.472;2024-01-11T09:35:54;58.44;;;55.42;;
66669;SDS011;53568;52.164;4.472;2024-01-11T09:38:21;55.44;;;52.33;;
66669;SDS011;53568;52.164;4.472;2024-01-11T09:40:49;53.19;;;50.68;;
66669;SDS011;53568;52.164;4.472;2024-01-11T09:43:30;51.59;;;48.86;;
66669;SDS011;53568;52.164;4.472;2024-01-11T09:46:00;51.04;;;48.19;;
66669;SDS011;53568;52.164;4.472;2024-01-11T09:48:36;47.73;;;46.05;;
66669;SDS011;53568;52.164;4.472;2024-01-11T09:51:04;50.16;;;47.60;;
66669;SDS011;53568;52.164;4.472;2024-01-11T09:53:35;47.47;;;45.64;;
66669;SDS011;53568;52.164;4.472;2024-01-11T09:56:04;48.42;;;46.06;;
66669;SDS011;53568;52.164;4.472;2024-01-11T09:58:34;45.56;;;43.65;;
66669;SDS011;53568;52.164;4.472;2024-01-11T10:01:05;45.92;;;44.02;;
66669;SDS011;53568;52.164;4.472;2024-01-11T10:03:34;43.74;;;41.94;;
66669;SDS011;53568;52.164;4.472;2024-01-11T10:06:00;43.23;;;41.39;;
66669;SDS011;53568;52.164;4.472;2024-01-11T10:08:27;41.63;;;39.68;;
66669;SDS011;53568;52.164;4.472;2024-01-11T10:10:54;42.23;;;40.50;;
66669;SDS011;53568;52.164;4.472;2024-01-11T10:13:25;42.58;;;41.04;;
66669;SDS011;53568;52.164;4.472;2024-01-11T10:15:56;43.59;;;41.46;;
66669;SDS011;53568;52.164;4.472;2024-01-11T10:18:33;41.29;;;39.83;;
66669;SDS011;53568;52.164;4.472;2024-01-11T10:20:59;40.54;;;39.06;;
66669;SDS011;53568;52.164;4.472;2024-01-11T10:23:24;40.05;;;38.86;;
66669;SDS011;53568;52.164;4.472;2024-01-11T10:25:50;40.46;;;39.04;;
66669;SDS011;53568;52.164;4.472;2024-01-11T10:28:15;39.09;;;37.64;;
66669;SDS011;53568;52.164;4.472;2024-01-11T10:30:45;39.53;;;38.09;;
66669;SDS011;53568;52.164;4.472;2024-01-11T10:33:11;38.72;;;37.22;;
66669;SDS011;53568;52.164;4.472;2024-01-11T10:35:37;37.48;;;35.98;;
66669;SDS011;53568;52.164;4.472;2024-01-11T10:38:03;34.34;;;33.29;;
66669;SDS011;53568;52.164;4.472;2024-01-11T10:40:35;34.03;;;32.89;;
66669;SDS011;53568;52.164;4.472;2024-01-11T10:43:01;33.06;;;32.13;;
66669;SDS011;53568;52.164;4.472;2024-01-11T10:45:30;33.42;;;32.21;;
66669;SDS011;53568;52.164;4.472;2024-01-11T10:48:14;32.95;;;31.59;;
66669;SDS011;53568;52.164;4.472;2024-01-11T10:50:45;32.91;;;31.88;;
66669;SDS011;53568;52.164;4.472;2024-01-11T10:53:19;32.04;;;31.24;;
66669;SDS011;53568;52.164;4.472;2024-01-11T10:56:09;30.91;;;30.13;;
66669;SDS011;53568;52.164;4.472;2024-01-11T10:58:37;31.73;;;30.93;;
66669;SDS011;53568;52.164;4.472;2024-01-11T11:01:05;32.15;;;31.20;;
66669;SDS011;53568;52.164;4.472;2024-01-11T11:03:31;31.55;;;30.52;;
66669;SDS011;53568;52.164;4.472;2024-01-11T11:06:00;29.78;;;28.95;;
66669;SDS011;53568;52.164;4.472;2024-01-11T11:08:27;30.43;;;29.63;;
66669;SDS011;53568;52.164;4.472;2024-01-11T11:10:55;30.98;;;30.00;;
66669;SDS011;53568;52.164;4.472;2024-01-11T11:13:25;29.29;;;28.59;;
66669;SDS011;53568;52.164;4.472;2024-01-11T11:15:52;28.69;;;27.96;;
66669;SDS011;53568;52.164;4.472;2024-01-11T11:18:18;30.87;;;29.80;;
66669;SDS011;53568;52.164;4.472;2024-01-11T11:20:46;29.05;;;28.11;;
66669;SDS011;53568;52.164;4.472;2024-01-11T11:23:14;28.44;;;27.69;;
66669;SDS011;53568;52.164;4.472;2024-01-11T11:25:42;27.66;;;26.96;;
66669;SDS011;53568;52.164;4.472;2024-01-11T11:28:11;27.17;;;26.57;;
66669;SDS011;53568;52.164;4.472;2024-01-11T11:30:38;27.28;;;26.57;;
66669;SDS011;53568;52.164;4.472;2024-01-11T11:33:25;26.46;;;25.82;;
66669;SDS011;53568;52.164;4.472;2024-01-11T11:35:52;27.34;;;26.91;;
66669;SDS011;53568;52.164;4.472;2024-01-11T11:38:26;27.05;;;26.30;;
66669;SDS011;53568;52.164;4.472;2024-01-11T11:40:58;26.47;;;25.97;;
66669;SDS011;53568;52.164;4.472;2024-01-11T11:43:26;26.97;;;26.38;;
66669;SDS011;53568;52.164;4.472;2024-01-11T11:45:53;27.38;;;26.76;;
66669;SDS011;53568;52.164;4.472;2024-01-11T11:51:01;25.48;;;24.91;;
66669;SDS011;53568;52.164;4.472;2024-01-11T11:53:34;25.14;;;24.71;;
66669;SDS011;53568;52.164;4.472;2024-01-11T11:56:01;25.62;;;25.08;;
66669;SDS011;53568;52.164;4.472;2024-01-11T11:58:28;24.73;;;24.18;;
66669;SDS011;53568;52.164;4.472;2024-01-11T12:00:55;26.28;;;25.51;;
66669;SDS011;53568;52.164;4.472;2024-01-11T12:03:29;25.23;;;24.58;;
66669;SDS011;53568;52.164;4.472;2024-01-11T12:06:02;24.86;;;24.35;;
66669;SDS011;53568;52.164;4.472;2024-01-11T12:08:29;24.46;;;24.02;;
66669;SDS011;53568;52.164;4.472;2024-01-11T12:10:56;25.70;;;24.95;;
66669;SDS011;53568;52.164;4.472;2024-01-11T12:13:21;24.74;;;24.08;;
66669;SDS011;53568;52.164;4.472;2024-01-11T12:15:47;24.47;;;23.90;;
66669;SDS011;53568;52.164;4.472;2024-01-11T12:18:13;22.45;;;22.15;;
66669;SDS011;53568;52.164;4.472;2024-01-11T12:20:38;23.25;;;22.80;;
66669;SDS011;53568;52.164;4.472;2024-01-11T12:23:04;24.24;;;23.77;;
66669;SDS011;53568;52.164;4.472;2024-01-11T12:25:30;23.46;;;23.03;;
66669;SDS011;53568;52.164;4.472;2024-01-11T12:27:56;23.26;;;22.77;;
66669;SDS011;53568;52.164;4.472;2024-01-11T12:30:23;22.86;;;22.38;;
66669;SDS011;53568;52.164;4.472;2024-01-11T12:32:49;23.19;;;22.57;;
66669;SDS011;53568;52.164;4.472;2024-01-11T12:35:16;23.15;;;22.81;;
66669;SDS011;53568;52.164;4.472;2024-01-11T12:40:34;22.43;;;22.06;;
66669;SDS011;53568;52.164;4.472;2024-01-11T12:43:02;23.04;;;22.49;;
66669;SDS011;53568;52.164;4.472;2024-01-11T12:45:29;22.85;;;22.36;;
66669;SDS011;53568;52.164;4.472;2024-01-11T12:47:57;22.98;;;22.46;;
66669;SDS011;53568;52.164;4.472;2024-01-11T12:50:25;22.61;;;22.03;;
66669;SDS011;53568;52.164;4.472;2024-01-11T12:53:08;22.71;;;22.38;;
66669;SDS011;53568;52.164;4.472;2024-01-11T12:55:43;22.36;;;21.99;;
66669;SDS011;53568;52.164;4.472;2024-01-11T12:58:12;22.10;;;21.50;;
66669;SDS011;53568;52.164;4.472;2024-01-11T13:00:43;21.86;;;21.29;;
66669;SDS011;53568;52.164;4.472;2024-01-11T13:03:09;20.82;;;20.51;;
66669;SDS011;53568;52.164;4.472;2024-01-11T13:05:35;20.56;;;20.42;;
66669;SDS011;53568;52.164;4.472;2024-01-11T13:08:01;21.39;;;20.87;;
66669;SDS011;53568;52.164;4.472;2024-01-11T13:10:29;21.27;;;20.90;;
66669;SDS011;53568;52.164;4.472;2024-01-11T13:12:55;21.23;;;20.92;;
66669;SDS011;53568;52.164;4.472;2024-01-11T13:15:22;21.46;;;21.13;;
66669;SDS011;53568;52.164;4.472;2024-01-11T13:17:48;21.79;;;21.31;;
66669;SDS011;53568;52.164;4.472;2024-01-11T13:20:14;22.83;;;22.10;;
66669;SDS011;53568;52.164;4.472;2024-01-11T13:22:40;22.49;;;21.86;;
66669;SDS011;53568;52.164;4.472;2024-01-11T13:25:06;21.61;;;21.25;;
66669;SDS011;53568;52.164;4.472;2024-01-11T13:27:31;21.96;;;21.68;;
66669;SDS011;53568;52.164;4.472;2024-01-11T13:29:57;21.82;;;21.28;;
66669;SDS011;53568;52.164;4.472;2024-01-11T13:32:23;21.53;;;21.28;;
66669;SDS011;53568;52.164;4.472;2024-01-11T13:34:49;21.79;;;21.51;;
66669;SDS011;53568;52.164;4.472;2024-01-11T13:37:18;21.80;;;21.52;;
66669;SDS011;53568;52.164;4.472;2024-01-11T13:39:45;21.64;;;21.22;;
66669;SDS011;53568;52.164;4.472;2024-01-11T13:42:10;21.88;;;21.37;;
66669;SDS011;53568;52.164;4.472;2024-01-11T13:44:36;21.26;;;20.93;;
66669;SDS011;53568;52.164;4.472;2024-01-11T13:47:03;20.44;;;20.03;;
66669;SDS011;53568;52.164;4.472;2024-01-11T13:49:29;20.41;;;19.87;;
66669;SDS011;53568;52.164;4.472;2024-01-11T13:51:54;20.57;;;20.37;;
66669;SDS011;53568;52.164;4.472;2024-01-11T13:54:19;20.49;;;20.18;;
66669;SDS011;53568;52.164;4.472;2024-01-11T13:56:47;20.83;;;20.37;;
66669;SDS011;53568;52.164;4.472;2024-01-11T13:59:13;20.64;;;20.47;;
66669;SDS011;53568;52.164;4.472;2024-01-11T14:01:39;19.95;;;19.68;;
66669;SDS011;53568;52.164;4.472;2024-01-11T14:04:05;19.95;;;19.54;;
66669;SDS011;53568;52.164;4.472;2024-01-11T14:06:30;20.41;;;19.98;;
66669;SDS011;53568;52.164;4.472;2024-01-11T14:08:56;19.87;;;19.45;;
66669;SDS011;53568;52.164;4.472;2024-01-11T14:11:21;20.84;;;20.42;;
66669;SDS011;53568;52.164;4.472;2024-01-11T14:13:47;21.50;;;21.09;;
66669;SDS011;53568;52.164;4.472;2024-01-11T14:16:13;21.31;;;21.01;;
66669;SDS011;53568;52.164;4.472;2024-01-11T14:18:40;21.48;;;20.95;;
66669;SDS011;53568;52.164;4.472;2024-01-11T14:21:06;21.86;;;21.23;;
66669;SDS011;53568;52.164;4.472;2024-01-11T14:23:31;21.61;;;21.42;;